createdAt,value
2023-04-22T00:00:38.175Z,91254.31
2023-04-22T00:03:05.222Z,91252.16
2023-04-22T00:05:32.103Z,91255.47
2023-04-22T00:07:58.860Z,91251.63
2023-04-22T00:10:25.688Z,91254.25
2023-04-22T00:12:52.334Z,91257.56
2023-04-22T00:15:21.663Z,91253.47
2023-04-22T00:17:49.026Z,91254.59
2023-04-22T00:20:16.418Z,91254.19
2023-04-22T00:22:43.099Z,91250.00
2023-04-22T00:25:09.790Z,91257.88
2023-04-22T00:27:36.441Z,91261.06
2023-04-22T00:30:03.642Z,91261.63
2023-04-22T00:32:30.335Z,91263.91
2023-04-22T00:34:57.700Z,91259.59
2023-04-22T00:37:24.929Z,91259.53
2023-04-22T00:39:51.488Z,91263.09
2023-04-22T00:42:18.186Z,91263.88
2023-04-22T00:44:44.768Z,91266.91
2023-04-22T00:47:11.882Z,91263.53
2023-04-22T00:49:38.778Z,91264.53
2023-04-22T00:52:05.792Z,91263.50
2023-04-22T00:54:32.458Z,91263.81
2023-04-22T00:56:59.108Z,91254.50
2023-04-22T00:59:25.793Z,91255.19
2023-04-22T01:01:52.492Z,91256.81
2023-04-22T01:04:19.897Z,91250.09
2023-04-22T01:06:46.673Z,91254.28
2023-04-22T01:09:13.619Z,91262.03
2023-04-22T01:11:40.299Z,91254.50
2023-04-22T01:14:06.977Z,91256.47
2023-04-22T01:16:39.033Z,91252.53
2023-04-22T01:19:06.582Z,91260.00
2023-04-22T01:21:34.372Z,91254.31
2023-04-22T01:24:01.546Z,91255.25
2023-04-22T01:26:28.200Z,91253.19
2023-04-22T01:28:54.871Z,91254.16
2023-04-22T01:31:21.618Z,91250.72
2023-04-22T01:33:48.460Z,91250.38
2023-04-22T01:36:15.398Z,91259.28
2023-04-22T01:38:42.108Z,91258.22
2023-04-22T01:41:09.063Z,91255.84
2023-04-22T01:43:36.268Z,91247.53
2023-04-22T01:46:04.268Z,91250.97
2023-04-22T01:48:30.953Z,91258.84
2023-04-22T01:50:57.606Z,91251.53
2023-04-22T01:53:24.270Z,91248.91
2023-04-22T01:55:51.043Z,91250.34
2023-04-22T01:58:17.730Z,91252.47
2023-04-22T02:00:44.656Z,91244.69
2023-04-22T02:03:11.560Z,91249.72
2023-04-22T02:05:38.300Z,91252.09
2023-04-22T02:08:05.019Z,91256.63
2023-04-22T02:10:31.742Z,91251.19
2023-04-22T02:12:58.898Z,91254.66
2023-04-22T02:15:25.583Z,91259.88
2023-04-22T02:17:53.068Z,91259.34
2023-04-22T02:20:19.762Z,91249.56
2023-04-22T02:22:46.484Z,91250.84
2023-04-22T02:25:14.256Z,91252.13
2023-04-22T02:27:40.979Z,91253.16
2023-04-22T02:30:08.134Z,91262.22
2023-04-22T02:32:36.887Z,91251.19
2023-04-22T02:35:05.339Z,91254.78
2023-04-22T02:37:31.967Z,91260.19
2023-04-22T02:39:58.617Z,91256.81
2023-04-22T02:42:25.309Z,91265.88
2023-04-22T02:44:51.886Z,91268.84
2023-04-22T02:47:18.591Z,91269.91
2023-04-22T02:49:45.175Z,91270.94
2023-04-22T02:52:11.958Z,91266.00
2023-04-22T02:54:38.677Z,91275.56
2023-04-22T02:57:05.360Z,91265.19
2023-04-22T02:59:32.039Z,91267.25
2023-04-22T03:01:58.760Z,91272.19
2023-04-22T03:04:25.769Z,91274.53
2023-04-22T03:06:52.749Z,91257.16
2023-04-22T03:09:19.566Z,91266.47
2023-04-22T03:11:46.249Z,91273.19
2023-04-22T03:14:12.950Z,91273.03
2023-04-22T03:16:39.708Z,91269.91
2023-04-22T03:19:06.512Z,91285.19
2023-04-22T03:21:33.112Z,91276.63
2023-04-22T03:23:59.915Z,91270.91
2023-04-22T03:26:26.618Z,91274.03
2023-04-22T03:28:53.184Z,91280.28
2023-04-22T03:31:19.909Z,91282.31
2023-04-22T03:33:46.655Z,91276.66
2023-04-22T03:36:13.386Z,91282.34
2023-04-22T03:38:40.151Z,91284.41
2023-04-22T03:41:06.873Z,91282.59
2023-04-22T03:43:33.492Z,91283.88
2023-04-22T03:46:00.268Z,91279.75
2023-04-22T03:48:29.065Z,91279.16
2023-04-22T03:50:55.803Z,91282.84
2023-04-22T03:53:22.628Z,91290.63
2023-04-22T03:55:49.290Z,91284.38
2023-04-22T03:58:15.870Z,91282.84
2023-04-22T04:00:42.646Z,91279.69
2023-04-22T04:03:09.531Z,91279.91
2023-04-22T04:05:36.601Z,91287.50
2023-04-22T04:08:03.547Z,91284.91
2023-04-22T04:10:30.412Z,91290.63
2023-04-22T04:12:58.046Z,91290.34
2023-04-22T04:15:25.061Z,91285.09
2023-04-22T04:17:51.745Z,91278.50
2023-04-22T04:20:18.396Z,91290.84
2023-04-22T04:22:45.046Z,91290.09
2023-04-22T04:25:11.844Z,91289.00
2023-04-22T04:27:39.420Z,91291.03
2023-04-22T04:30:07.091Z,91291.91
2023-04-22T04:32:36.830Z,91291.34
2023-04-22T04:35:03.585Z,91297.22
2023-04-22T04:37:30.355Z,91293.88
2023-04-22T04:39:59.321Z,91291.75
2023-04-22T04:42:26.070Z,91296.38
2023-04-22T04:44:53.575Z,91301.00
2023-04-22T04:47:20.303Z,91294.97
2023-04-22T04:49:47.305Z,91308.88
2023-04-22T04:52:14.027Z,91304.44
2023-04-22T04:54:40.734Z,91302.06
2023-04-22T04:57:07.440Z,91307.25
2023-04-22T04:59:34.061Z,91307.91
2023-04-22T05:02:00.900Z,91310.00
2023-04-22T05:04:27.706Z,91307.81
2023-04-22T05:06:54.593Z,91314.81
2023-04-22T05:09:21.325Z,91326.41
2023-04-22T05:11:47.904Z,91320.22
2023-04-22T05:14:14.644Z,91321.94
2023-04-22T05:16:41.448Z,91329.81
2023-04-22T05:19:08.551Z,91315.13
2023-04-22T05:21:35.298Z,91318.31
2023-04-22T05:24:02.057Z,91322.41
2023-04-22T05:26:28.678Z,91325.69
2023-04-22T05:28:55.423Z,91314.88
2023-04-22T05:31:22.272Z,91313.16
2023-04-22T05:33:48.910Z,91301.56
2023-04-22T05:36:15.653Z,91307.19
2023-04-22T05:38:42.321Z,91305.97
2023-04-22T05:41:08.987Z,91305.44
2023-04-22T05:43:35.575Z,91306.84
2023-04-22T05:46:02.423Z,91309.50
2023-04-22T05:48:29.126Z,91305.28
2023-04-22T05:50:55.795Z,91310.84
2023-04-22T05:53:22.491Z,91318.94
2023-04-22T05:55:49.136Z,91313.81
2023-04-22T05:58:15.862Z,91315.00
2023-04-22T06:00:42.585Z,91310.84
2023-04-22T06:03:09.504Z,91317.94
2023-04-22T06:05:36.330Z,91325.28
2023-04-22T06:08:03.224Z,91323.97
2023-04-22T06:10:30.057Z,91324.75
2023-04-22T06:12:56.757Z,91323.66
2023-04-22T06:15:23.352Z,91328.81
2023-04-22T06:17:50.051Z,91329.41
2023-04-22T06:20:16.928Z,91333.56
2023-04-22T06:22:43.611Z,91330.31
2023-04-22T06:25:10.544Z,91328.72
2023-04-22T06:27:37.892Z,91338.34
2023-04-22T06:30:05.664Z,91349.91
2023-04-22T06:32:32.349Z,91342.34
2023-04-22T06:34:59.056Z,91342.31
2023-04-22T06:37:27.239Z,91343.66
2023-04-22T06:39:53.928Z,91340.34
2023-04-22T06:42:20.566Z,91346.88
2023-04-22T06:44:47.241Z,91341.75
2023-04-22T06:47:13.989Z,91332.81
2023-04-22T06:49:41.680Z,91333.63
2023-04-22T06:52:08.597Z,91331.06
2023-04-22T06:54:35.288Z,91339.59
2023-04-22T06:57:02.005Z,91336.72
2023-04-22T06:59:28.788Z,91331.78
2023-04-22T07:01:55.419Z,91336.94
2023-04-22T07:04:22.123Z,91330.09
2023-04-22T07:06:48.856Z,91335.56
2023-04-22T07:09:15.619Z,91326.50
2023-04-22T07:11:42.250Z,91331.13
2023-04-22T07:14:08.953Z,91330.97
2023-04-22T07:16:35.783Z,91334.66
2023-04-22T07:19:02.656Z,91335.53
2023-04-22T07:21:29.384Z,91329.63
2023-04-22T07:23:56.116Z,91333.19
2023-04-22T07:26:22.902Z,91333.50
2023-04-22T07:28:49.610Z,91333.25
2023-04-22T07:31:16.315Z,91331.25
2023-04-22T07:33:42.939Z,91334.28
2023-04-22T07:36:09.620Z,91334.78
2023-04-22T07:38:36.460Z,91336.00
2023-04-22T07:41:03.192Z,91339.72
2023-04-22T07:43:29.943Z,91337.88
2023-04-22T07:45:56.682Z,91340.75
2023-04-22T07:48:23.360Z,91343.91
2023-04-22T07:50:50.033Z,91340.38
2023-04-22T07:53:17.758Z,91336.25
2023-04-22T07:55:44.686Z,91337.31
2023-04-22T07:58:11.405Z,91334.88
2023-04-22T08:00:38.158Z,91336.38
2023-04-22T08:03:04.981Z,91343.22
2023-04-22T08:05:31.813Z,91345.78
2023-04-22T08:07:58.495Z,91335.63
2023-04-22T08:10:25.355Z,91333.00
2023-04-22T08:12:51.982Z,91330.53
2023-04-22T08:15:18.780Z,91329.47
2023-04-22T08:17:45.393Z,91325.72
2023-04-22T08:20:12.464Z,91333.22
2023-04-22T08:22:39.273Z,91333.63
2023-04-22T08:25:06.824Z,91330.94
2023-04-22T08:27:33.453Z,91331.78
2023-04-22T08:30:00.146Z,91327.53
2023-04-22T08:32:26.982Z,91327.75
2023-04-22T08:34:57.538Z,91329.28
2023-04-22T08:37:27.810Z,91323.25
2023-04-22T08:39:54.737Z,91323.25
2023-04-22T08:42:22.899Z,91316.97
2023-04-22T08:44:49.554Z,91321.03
2023-04-22T08:47:16.742Z,91315.84
2023-04-22T08:49:44.087Z,91315.63
2023-04-22T08:52:12.863Z,91312.34
2023-04-22T08:54:39.537Z,91320.75
2023-04-22T08:57:06.274Z,91313.19
2023-04-22T08:59:32.938Z,91309.91
2023-04-22T09:01:59.920Z,91307.91
2023-04-22T09:04:26.635Z,91312.34
2023-04-22T09:06:53.244Z,91311.63
2023-04-22T09:09:19.945Z,91310.56
2023-04-22T09:11:46.576Z,91306.94
2023-04-22T09:14:13.287Z,91301.34
2023-04-22T09:16:46.859Z,91295.34
2023-04-22T09:19:14.188Z,91300.94
2023-04-22T09:21:43.951Z,91301.88
2023-04-22T09:24:11.500Z,91292.56
2023-04-22T09:26:42.010Z,91295.78
2023-04-22T09:29:09.566Z,91290.19
2023-04-22T09:31:38.089Z,91291.03
2023-04-22T09:34:04.897Z,91284.38
2023-04-22T09:36:35.789Z,91280.84
2023-04-22T09:39:04.886Z,91277.25
2023-04-22T09:41:36.136Z,91271.47
2023-04-22T09:44:03.828Z,91264.28
2023-04-22T09:46:31.304Z,91263.25
2023-04-22T09:48:58.984Z,91258.75
2023-04-22T09:51:26.023Z,91259.81
2023-04-22T09:53:59.717Z,91258.00
2023-04-22T09:56:41.098Z,91254.16
2023-04-22T09:59:08.846Z,91249.72
2023-04-22T10:01:37.296Z,91245.41
2023-04-22T10:04:04.387Z,91256.47
2023-04-22T10:06:31.941Z,91259.88
2023-04-22T10:08:59.418Z,91250.88
2023-04-22T10:11:26.163Z,91256.31
2023-04-22T10:13:52.814Z,91259.53
2023-04-22T10:16:20.388Z,91268.00
2023-04-22T10:18:47.168Z,91264.59
2023-04-22T10:21:13.872Z,91270.34
2023-04-22T10:23:45.752Z,91266.03
2023-04-22T10:26:12.411Z,91259.91
2023-04-22T10:28:43.629Z,91266.28
2023-04-22T10:31:23.318Z,91253.44
2023-04-22T10:33:50.037Z,91248.41
2023-04-22T10:36:18.054Z,91259.84
2023-04-22T10:38:50.823Z,91251.84
2023-04-22T10:41:17.934Z,91246.47
2023-04-22T10:43:48.672Z,91249.03
2023-04-22T10:46:31.863Z,91246.94
2023-04-22T10:49:20.587Z,91239.53
2023-04-22T10:51:47.812Z,91242.13
2023-04-22T10:54:32.131Z,91244.66
2023-04-22T10:57:02.875Z,91243.66
2023-04-22T10:59:32.803Z,91238.75
2023-04-22T11:02:03.101Z,91234.97
2023-04-22T11:04:30.281Z,91247.63
2023-04-22T11:07:17.055Z,91255.69
2023-04-22T11:09:45.086Z,91261.84
2023-04-22T11:12:39.535Z,91275.06
2023-04-22T11:15:13.788Z,91276.31
2023-04-22T11:17:42.363Z,91278.06
2023-04-22T11:20:09.264Z,91287.25
2023-04-22T11:22:37.029Z,91297.69
2023-04-22T11:25:05.060Z,91302.03
2023-04-22T11:27:31.777Z,91303.97
2023-04-22T11:30:08.127Z,91304.09
2023-04-22T11:32:38.550Z,91307.34
2023-04-22T11:35:07.032Z,91313.06
2023-04-22T11:37:56.333Z,91316.16
2023-04-22T11:40:35.154Z,91329.16
2023-04-22T11:43:04.833Z,91317.19
2023-04-22T11:45:33.013Z,91312.25
2023-04-22T11:48:00.240Z,91315.50
2023-04-22T11:50:28.534Z,91317.25
2023-04-22T11:53:01.778Z,91316.19
2023-04-22T11:55:35.741Z,91301.22
2023-04-22T11:58:12.715Z,91304.63
2023-04-22T12:00:52.294Z,91304.19
2023-04-22T12:03:33.934Z,91291.75
2023-04-22T12:06:01.855Z,91289.50
2023-04-22T12:08:32.283Z,91289.13
2023-04-22T12:11:04.047Z,91290.66
2023-04-22T12:13:41.627Z,91292.91
2023-04-22T12:16:14.708Z,91279.66
2023-04-22T12:18:51.406Z,91279.44
2023-04-22T12:21:20.118Z,91283.78
2023-04-22T12:23:50.558Z,91285.59
2023-04-22T12:26:18.077Z,91274.00
2023-04-22T12:28:45.090Z,91271.97
2023-04-22T12:31:11.898Z,91268.25
2023-04-22T12:33:38.759Z,91269.53
2023-04-22T12:36:05.785Z,91262.06
2023-04-22T12:38:32.601Z,91261.13
2023-04-22T12:40:59.414Z,91258.41
2023-04-22T12:43:26.215Z,91254.28
2023-04-22T12:45:52.880Z,91254.91
2023-04-22T12:48:19.606Z,91253.13
2023-04-22T12:50:46.315Z,91256.06
2023-04-22T12:53:12.996Z,91258.47
2023-04-22T12:55:39.723Z,91260.25
2023-04-22T12:58:06.437Z,91258.91
2023-04-22T13:00:33.389Z,91252.47
2023-04-22T13:03:00.160Z,91257.84
2023-04-22T13:05:27.114Z,91260.66
2023-04-22T13:08:05.716Z,91249.63
2023-04-22T13:10:34.116Z,91240.19
2023-04-22T13:13:16.820Z,91239.78
2023-04-22T13:15:45.130Z,91245.03
2023-04-22T13:18:11.893Z,91247.72
2023-04-22T13:20:39.883Z,91238.72
2023-04-22T13:23:06.685Z,91242.13
2023-04-22T13:25:33.277Z,91240.53
2023-04-22T13:27:59.882Z,91239.81
2023-04-22T13:30:26.577Z,91244.47
2023-04-22T13:32:53.354Z,91241.91
2023-04-22T13:35:20.119Z,91237.13
2023-04-22T13:37:47.123Z,91236.28
2023-04-22T13:40:13.858Z,91242.06
2023-04-22T13:42:40.490Z,91238.94
2023-04-22T13:45:08.036Z,91245.19
2023-04-22T13:47:34.681Z,91243.53
2023-04-22T13:50:02.114Z,91243.09
2023-04-22T13:52:29.280Z,91242.03
2023-04-22T13:54:56.014Z,91240.91
2023-04-22T13:57:23.326Z,91244.59
2023-04-22T13:59:50.421Z,91245.56
2023-04-22T14:02:17.258Z,91239.19
2023-04-22T14:04:44.089Z,91252.03
2023-04-22T14:07:11.264Z,91248.59
2023-04-22T14:09:38.096Z,91250.84
2023-04-22T14:12:06.169Z,91257.22
2023-04-22T14:14:32.912Z,91259.75
2023-04-22T14:16:59.763Z,91254.03
2023-04-22T14:19:27.538Z,91269.28
2023-04-22T14:21:54.197Z,91256.56
2023-04-22T14:24:20.847Z,91265.97
2023-04-22T14:26:47.621Z,91264.09
2023-04-22T14:29:14.332Z,91272.56
2023-04-22T14:31:40.932Z,91271.31
2023-04-22T14:34:07.665Z,91275.00
2023-04-22T14:36:34.399Z,91275.44
2023-04-22T14:39:01.049Z,91287.28
2023-04-22T14:41:27.778Z,91285.00
2023-04-22T14:43:54.415Z,91286.22
2023-04-22T14:46:21.590Z,91280.53
2023-04-22T14:48:48.285Z,91286.28
2023-04-22T14:51:14.901Z,91296.66
2023-04-22T14:53:41.812Z,91293.59
2023-04-22T14:56:08.710Z,91291.75
2023-04-22T14:58:35.342Z,91290.72
2023-04-22T15:01:02.016Z,91296.03
2023-04-22T15:03:29.059Z,91301.69
2023-04-22T15:05:55.801Z,91294.75
2023-04-22T15:08:25.134Z,91300.91
2023-04-22T15:10:51.878Z,91299.28
2023-04-22T15:13:19.608Z,91291.09
2023-04-22T15:15:46.789Z,91293.09
2023-04-22T15:18:13.585Z,91301.34
2023-04-22T15:20:40.990Z,91297.53
2023-04-22T15:23:07.674Z,91293.69
2023-04-22T15:25:35.116Z,91297.44
2023-04-22T15:28:01.737Z,91295.16
2023-04-22T15:30:28.380Z,91296.84
2023-04-22T15:32:55.230Z,91302.09
2023-04-22T15:35:23.207Z,91301.88
2023-04-22T15:37:49.842Z,91308.47
2023-04-22T15:40:16.622Z,91320.69
2023-04-22T15:42:43.232Z,91319.72
2023-04-22T15:45:12.770Z,91321.47
2023-04-22T15:47:40.700Z,91323.47
2023-04-22T15:50:09.469Z,91331.81
2023-04-22T15:52:37.553Z,91329.03
2023-04-22T15:55:08.070Z,91331.75
2023-04-22T15:57:35.505Z,91338.34
2023-04-22T16:00:12.680Z,91332.13
2023-04-22T16:02:40.640Z,91338.19
2023-04-22T16:05:07.748Z,91341.28
2023-04-22T16:07:34.330Z,91333.44
2023-04-22T16:10:01.354Z,91347.22
2023-04-22T16:12:28.074Z,91335.94
2023-04-22T16:14:54.714Z,91337.19
2023-04-22T16:17:21.557Z,91348.50
2023-04-22T16:19:48.422Z,91338.97
2023-04-22T16:22:15.000Z,91345.78
2023-04-22T16:24:44.014Z,91340.50
2023-04-22T16:27:16.259Z,91347.13
2023-04-22T16:29:43.612Z,91345.00
2023-04-22T16:32:10.710Z,91350.50
2023-04-22T16:34:38.380Z,91349.41
2023-04-22T16:37:05.502Z,91351.03
2023-04-22T16:39:32.214Z,91369.19
2023-04-22T16:41:59.098Z,91363.00
2023-04-22T16:44:25.797Z,91359.28
2023-04-22T16:46:52.473Z,91366.63
2023-04-22T16:49:19.184Z,91364.28
2023-04-22T16:51:45.816Z,91361.75
2023-04-22T16:54:12.562Z,91368.75
2023-04-22T16:56:39.266Z,91369.91
2023-04-22T16:59:05.970Z,91373.34
2023-04-22T17:01:32.625Z,91370.34
2023-04-22T17:03:59.472Z,91378.72
2023-04-22T17:06:28.299Z,91384.56
2023-04-22T17:08:55.066Z,91387.09
2023-04-22T17:11:22.049Z,91395.34
2023-04-22T17:13:48.672Z,91401.44
2023-04-22T17:16:15.707Z,91395.78
2023-04-22T17:18:42.659Z,91404.00
2023-04-22T17:21:09.480Z,91397.84
2023-04-22T17:23:36.278Z,91416.38
2023-04-22T17:26:02.938Z,91414.41
2023-04-22T17:28:29.644Z,91409.91
2023-04-22T17:30:56.339Z,91416.09
2023-04-22T17:33:23.175Z,91410.56
2023-04-22T17:35:49.765Z,91420.47
2023-04-22T17:38:17.619Z,91429.13
2023-04-22T17:40:44.822Z,91437.97
2023-04-22T17:43:11.439Z,91437.03
2023-04-22T17:45:38.184Z,91436.25
2023-04-22T17:48:05.037Z,91445.69
2023-04-22T17:50:31.822Z,91442.91
2023-04-22T17:52:58.556Z,91444.59
2023-04-22T17:55:25.320Z,91449.09
2023-04-22T17:57:51.940Z,91449.56
2023-04-22T18:00:19.037Z,91450.16
2023-04-22T18:02:45.900Z,91468.59
2023-04-22T18:05:12.714Z,91452.94
2023-04-22T18:07:39.600Z,91463.16
2023-04-22T18:10:06.974Z,91469.13
2023-04-22T18:12:33.741Z,91463.91
2023-04-22T18:15:00.954Z,91464.53
2023-04-22T18:17:27.757Z,91470.75
2023-04-22T18:20:02.671Z,91463.63
2023-04-22T18:22:33.117Z,91464.06
2023-04-22T18:25:01.952Z,91465.03
2023-04-22T18:27:28.912Z,91464.53
2023-04-22T18:29:55.749Z,91474.13
2023-04-22T18:32:22.480Z,91476.31
2023-04-22T18:34:49.196Z,91479.34
2023-04-22T18:37:15.970Z,91479.09
2023-04-22T18:39:42.665Z,91498.06
2023-04-22T18:42:09.273Z,91494.16
2023-04-22T18:44:36.170Z,91497.03
2023-04-22T18:47:04.559Z,91494.00
2023-04-22T18:49:34.236Z,91500.31
2023-04-22T18:52:00.986Z,91500.50
2023-04-22T18:54:28.755Z,91510.19
2023-04-22T18:56:57.204Z,91511.97
2023-04-22T18:59:23.901Z,91513.22
2023-04-22T19:01:51.129Z,91516.41
2023-04-22T19:04:18.076Z,91513.91
2023-04-22T19:06:45.098Z,91505.66
2023-04-22T19:09:12.060Z,91511.31
2023-04-22T19:11:38.789Z,91511.16
2023-04-22T19:14:05.991Z,91509.19
2023-04-22T19:16:32.750Z,91509.28
2023-04-22T19:18:59.370Z,91508.44
2023-04-22T19:21:29.997Z,91507.59
2023-04-22T19:23:56.639Z,91511.16
2023-04-22T19:26:23.301Z,91515.16
2023-04-22T19:28:49.991Z,91510.06
2023-04-22T19:31:19.493Z,91513.78
2023-04-22T19:33:46.153Z,91509.66
2023-04-22T19:36:12.844Z,91509.53
2023-04-22T19:38:39.521Z,91512.69
2023-04-22T19:41:08.610Z,91521.03
2023-04-22T19:43:37.319Z,91518.59
2023-04-22T19:46:07.657Z,91517.63
2023-04-22T19:48:34.766Z,91510.31
2023-04-22T19:51:01.540Z,91517.69
2023-04-22T19:53:29.030Z,91517.13
2023-04-22T19:55:55.631Z,91528.59
2023-04-22T19:58:22.230Z,91524.59
2023-04-22T20:00:49.429Z,91523.53
2023-04-22T20:03:16.614Z,91527.25
2023-04-22T20:05:43.961Z,91516.13
2023-04-22T20:08:11.389Z,91519.22
2023-04-22T20:10:38.182Z,91517.81
2023-04-22T20:13:05.679Z,91524.75
2023-04-22T20:15:33.030Z,91513.34
2023-04-22T20:18:00.098Z,91515.53
2023-04-22T20:20:27.606Z,91513.88
2023-04-22T20:22:54.279Z,91514.25
2023-04-22T20:25:21.037Z,91514.53
2023-04-22T20:27:47.681Z,91511.63
2023-04-22T20:30:14.649Z,91508.38
2023-04-22T20:32:42.008Z,91506.75
2023-04-22T20:35:12.441Z,91505.13
2023-04-22T20:37:39.781Z,91500.41
2023-04-22T20:40:08.369Z,91513.75
2023-04-22T20:42:36.875Z,91519.06
2023-04-22T20:45:07.124Z,91517.47
2023-04-22T20:47:33.887Z,91512.88
2023-04-22T20:50:01.038Z,91517.31
2023-04-22T20:52:27.994Z,91515.00
2023-04-22T20:54:58.613Z,91515.31
2023-04-22T20:57:25.345Z,91513.19
2023-04-22T20:59:51.947Z,91515.31
2023-04-22T21:02:18.698Z,91515.31
2023-04-22T21:04:45.529Z,91512.44
2023-04-22T21:07:12.456Z,91511.38
2023-04-22T21:09:40.556Z,91514.59
2023-04-22T21:12:07.702Z,91502.28
2023-04-22T21:14:34.625Z,91508.19
2023-04-22T21:17:04.127Z,91501.41
2023-04-22T21:19:34.323Z,91506.50
2023-04-22T21:22:05.554Z,91500.69
2023-04-22T21:24:33.007Z,91503.31
2023-04-22T21:26:59.820Z,91505.31
2023-04-22T21:29:26.789Z,91512.97
2023-04-22T21:32:07.349Z,91519.09
2023-04-22T21:34:35.837Z,91513.56
2023-04-22T21:37:02.596Z,91506.34
2023-04-22T21:39:29.727Z,91507.53
2023-04-22T21:41:56.381Z,91508.63
2023-04-22T21:44:23.077Z,91511.28
2023-04-22T21:46:49.758Z,91502.97
2023-04-22T21:49:16.462Z,91509.63
2023-04-22T21:51:43.039Z,91514.19
2023-04-22T21:54:09.668Z,91520.41
2023-04-22T21:56:36.433Z,91515.41
2023-04-22T21:59:03.064Z,91514.88
2023-04-22T22:01:29.729Z,91518.09
2023-04-22T22:03:56.621Z,91512.28
2023-04-22T22:06:23.828Z,91512.03
2023-04-22T22:08:50.540Z,91517.34
2023-04-22T22:11:24.091Z,91512.00
2023-04-22T22:13:56.766Z,91518.72
2023-04-22T22:16:24.797Z,91514.09
2023-04-22T22:18:51.963Z,91509.50
2023-04-22T22:21:18.851Z,91516.34
2023-04-22T22:23:45.496Z,91524.44
2023-04-22T22:26:12.122Z,91516.16
2023-04-22T22:28:39.233Z,91523.84
2023-04-22T22:31:05.997Z,91519.81
2023-04-22T22:33:32.605Z,91516.00
2023-04-22T22:35:59.233Z,91524.94
2023-04-22T22:38:26.022Z,91520.31
2023-04-22T22:40:52.670Z,91522.50
2023-04-22T22:43:19.322Z,91522.31
2023-04-22T22:45:46.069Z,91523.63
2023-04-22T22:48:12.770Z,91521.84
2023-04-22T22:50:39.993Z,91517.19
2023-04-22T22:53:06.659Z,91518.91
2023-04-22T22:55:34.191Z,91516.72
2023-04-22T22:58:00.902Z,91518.34
2023-04-22T23:00:27.600Z,91513.97
2023-04-22T23:02:54.540Z,91524.28
2023-04-22T23:05:21.447Z,91521.75
2023-04-22T23:07:48.075Z,91512.91
2023-04-22T23:10:15.057Z,91515.47
2023-04-22T23:12:41.793Z,91509.13
2023-04-22T23:15:08.941Z,91507.63
2023-04-22T23:17:36.757Z,91510.75
2023-04-22T23:20:04.041Z,91509.75
2023-04-22T23:22:32.098Z,91504.81
2023-04-22T23:24:59.238Z,91498.06
2023-04-22T23:27:26.062Z,91499.75
2023-04-22T23:29:52.962Z,91505.66
2023-04-22T23:32:19.776Z,91507.81
2023-04-22T23:34:46.479Z,91512.97
2023-04-22T23:37:14.449Z,91505.94
2023-04-22T23:39:42.061Z,91507.13
2023-04-22T23:42:08.743Z,91513.31
2023-04-22T23:44:35.918Z,91509.53
2023-04-22T23:47:02.822Z,91514.03
2023-04-22T23:49:29.726Z,91511.63
2023-04-22T23:51:56.345Z,91523.66
2023-04-22T23:54:23.157Z,91515.06
2023-04-22T23:56:50.207Z,91513.19
2023-04-22T23:59:17.033Z,91510.66
